OPDR Andalucia — ECKZ — position and weather

sailwx.info

Track history (hours):
 
Tides and Currents Weather Stations Pressure Air Temp Water Temp Dewpoint Dewpoint Depression Visibility Wind Speed Wind Dir Waves Ship Positions

OPDR Andalucia

Last reported at 2017-Sep-25 15:00 UTC. Time now 2017-Sep-25 15:16 UTC.
Position N 28°20' W 015°48'.

Length 145 m; draft 5 m.

Type: Ship (hazmat cat A). MMSI: 225302000.

Date/timePositionNaut miles runAvg speedWind from/ knotsBaromVisibWave heightAir tempDewpointWater temp
2017-Sep-25 15:00N 28°20' W 015°48'714.2
2017-Sep-25 14:30N 28°23' W 015°55'714.5
2017-Sep-25 14:00N 28°25' W 016°03'714.5
2017-Sep-25 13:30N 28°28' W 016°11'3 5.6
2017-Sep-25 13:00N 28°29' W 016°13'0 0.0
2017-Sep-25 12:30N 28°29' W 016°13'0 0.0
2017-Sep-25 12:00N 28°29' W 016°13'0 0.0
2017-Sep-25 11:30N 28°29' W 016°13'0 0.0
2017-Sep-25 11:00N 28°29' W 016°13'0 0.0
2017-Sep-25 10:30N 28°29' W 016°13'0 0.0
2017-Sep-25 10:00N 28°29' W 016°13'0 0.0
2017-Sep-25 09:30N 28°29' W 016°13'0 0.0
2017-Sep-25 09:00N 28°29' W 016°13'0 0.0
2017-Sep-25 08:30N 28°29' W 016°13'0 0.0
2017-Sep-25 08:00N 28°29' W 016°13'0 0.0
2017-Sep-25 07:30N 28°29' W 016°13'0 0.0
2017-Sep-25 07:00N 28°29' W 016°13'0 0.0
2017-Sep-25 06:30N 28°29' W 016°13'0 0.0
2017-Sep-25 06:00N 28°29' W 016°13'0 0.0
2017-Sep-25 05:31N 28°29' W 016°13'0 0.0
2017-Sep-25 05:00N 28°29' W 016°13'0 0.0
2017-Sep-25 04:30N 28°29' W 016°13'0 0.0
2017-Sep-25 04:00N 28°29' W 016°13'0 0.0
2017-Sep-25 03:30N 28°29' W 016°13'0 0.0
2017-Sep-25 03:00N 28°29' W 016°13'0 0.0
2017-Sep-25 02:31N 28°29' W 016°13'0 0.0
2017-Sep-25 02:00N 28°29' W 016°13'0 0.0
2017-Sep-25 01:30N 28°29' W 016°13'0 0.5
2017-Sep-25 01:00N 28°29' W 016°14'2 4.4
2017-Sep-25 00:30N 28°28' W 016°12'1 1.4
2017-Sep-25 00:00N 28°28' W 016°11'711.7
2017-Sep-24 23:26N 28°31' W 016°05'2214.8
2017-Sep-24 21:56N 28°47' W 015°47'614.7
2017-Sep-24 21:30N 28°52' W 015°42'714.6
2017-Sep-24 21:00N 28°57' W 015°36'1014.4
2017-Sep-24 20:19N 29°04' W 015°28'714.6
2017-Sep-24 19:49N 29°10' W 015°22'514.9
2017-Sep-24 19:30N 29°13' W 015°19'11414.8
2017-Sep-24 11:45N 30°35' W 013°47'1014.0
2017-Sep-24 11:02N 30°42' W 013°39'014.0
2017-Sep-24 11:00N 30°43' W 013°38'3014.3
2017-Sep-24 08:56N 31°04' W 013°14'814.5
2017-Sep-24 08:22N 31°10' W 013°07'814.6
2017-Sep-24 07:50N 31°15' W 013°01'514.8
2017-Sep-24 07:30N 31°18' W 012°57'815.2
2017-Sep-24 07:00N 31°24' W 012°51'815.8
2017-Sep-24 06:30N 31°29' W 012°44'1815.4
2017-Sep-24 05:21N 31°42' W 012°29'714.8
2017-Sep-24 04:51N 31°47' W 012°23'2615.0
2017-Sep-24 03:08N 32°06' W 012°02'315.2
2017-Sep-24 02:58N 32°07' W 011°60'  
2017-Sep-20 01:53N 31°06' W 011°36'613.9
2017-Sep-20 01:29N 31°02' W 011°39'2814.4
2017-Sep-19 23:34N 30°40' W 011°58'1114.0
2017-Sep-19 22:49N 30°31' W 012°06'713.8
2017-Sep-19 22:20N 30°26' W 012°11'413.8
2017-Sep-19 22:00N 30°23' W 012°14'1613.7
2017-Sep-19 20:50N 30°11' W 012°26'513.7
2017-Sep-19 20:30N 30°07' W 012°29'713.5
2017-Sep-19 20:00N 30°02' W 012°34'713.7
2017-Sep-19 19:30N 29°56' W 012°39'713.9
2017-Sep-19 19:00N 29°51' W 012°44'713.6
2017-Sep-19 18:30N 29°46' W 012°49'1314.5
2017-Sep-19 17:36N 29°35' W 012°58'115.0
2017-Sep-19 17:30N 29°34' W 012°59'714.9
2017-Sep-19 17:00N 29°28' W 013°04'815.1
2017-Sep-19 16:30N 29°22' W 013°09'714.7
2017-Sep-19 16:00N 29°16' W 013°14'814.7
2017-Sep-19 15:30N 29°10' W 013°19'815.2
2017-Sep-19 15:00N 29°04' W 013°24'714.8
2017-Sep-19 14:30N 28°58' W 013°30'2 4.0
2017-Sep-19 14:00N 28°58' W 013°32'0 0.0
2017-Sep-19 13:30N 28°58' W 013°32'0 0.0
2017-Sep-19 13:00N 28°58' W 013°32'0 0.0
2017-Sep-19 12:30N 28°58' W 013°32'0 0.0
2017-Sep-19 12:00N 28°58' W 013°32'0 0.0
2017-Sep-19 11:30N 28°58' W 013°32'0 0.0
2017-Sep-19 11:00N 28°58' W 013°32'0 0.0
2017-Sep-19 10:30N 28°58' W 013°32'0 0.0
2017-Sep-19 10:00N 28°58' W 013°32'0 0.0
2017-Sep-19 09:30N 28°58' W 013°32'0 0.0
2017-Sep-19 08:59N 28°58' W 013°32'0 0.6
2017-Sep-19 08:30N 28°58' W 013°32'4 7.7
2017-Sep-19 08:00N 28°55' W 013°35'815.8
2017-Sep-19 07:30N 28°51' W 013°43'815.6
2017-Sep-19 07:00N 28°48' W 013°51'815.5
2017-Sep-19 06:30N 28°47' W 013°60'815.4
2017-Sep-19 06:00N 28°44' W 014°08'815.4
2017-Sep-19 05:30N 28°40' W 014°16'815.2
2017-Sep-19 05:00N 28°36' W 014°23'714.9
2017-Sep-19 04:30N 28°33' W 014°31'714.8
2017-Sep-19 04:00N 28°29' W 014°38'714.9
2017-Sep-19 03:30N 28°26' W 014°46'815.2
2017-Sep-19 03:00N 28°23' W 014°53'815.1
2017-Sep-19 02:30N 28°19' W 015°01'815.1
2017-Sep-19 02:00N 28°15' W 015°08'815.5
2017-Sep-19 01:30N 28°11' W 015°16'714.9
2017-Sep-19 01:00N 28°08' W 015°23'2 3.7
2017-Sep-19 00:30N 28°09' W 015°25'0 0.0
2017-Sep-19 00:00N 28°09' W 015°25'0 0.0
2017-Sep-18 23:30N 28°09' W 015°25'0 0.0
2017-Sep-18 23:00N 28°09' W 015°25'0 0.0
2017-Sep-18 22:30N 28°09' W 015°25'0 0.0
2017-Sep-18 22:00N 28°09' W 015°25'0 0.0
2017-Sep-18 21:30N 28°09' W 015°25'0 0.0
2017-Sep-18 21:00N 28°09' W 015°25'0 0.0
2017-Sep-18 20:30N 28°09' W 015°25'0 0.0
2017-Sep-18 20:00N 28°09' W 015°25'0 0.0
2017-Sep-18 19:30N 28°09' W 015°25'0 0.0
2017-Sep-18 19:00N 28°09' W 015°25'0 0.0
2017-Sep-18 18:30N 28°09' W 015°25'0 0.0
2017-Sep-18 18:00N 28°09' W 015°25'0 0.0
2017-Sep-18 17:30N 28°09' W 015°25'0 0.0
2017-Sep-18 17:00N 28°09' W 015°25'2 3.0
2017-Sep-18 16:30N 28°07' W 015°24'5 9.3
2017-Sep-18 16:01N 28°12' W 015°23'714.6
2017-Sep-18 15:30N 28°11' W 015°31'4 7.9
2017-Sep-18 15:00N 28°11' W 015°36'714.8
2017-Sep-18 14:30N 28°14' W 015°43'714.7
2017-Sep-18 14:00N 28°18' W 015°51'814.6
2017-Sep-18 13:28N 28°21' W 015°59'714.5
2017-Sep-18 13:00N 28°25' W 016°05'714.8
2017-Sep-18 12:30N 28°28' W 016°13'2 3.2
2017-Sep-18 12:00N 28°29' W 016°13'0 0.0
2017-Sep-18 11:30N 28°29' W 016°13'0 0.0
2017-Sep-18 11:00N 28°29' W 016°13'0 0.0
2017-Sep-18 10:30N 28°29' W 016°13'0 0.0
2017-Sep-18 10:00N 28°29' W 016°13'0 0.0
2017-Sep-18 09:30N 28°29' W 016°13'0 0.0
2017-Sep-18 09:00N 28°29' W 016°13'0 0.0
2017-Sep-18 08:30N 28°29' W 016°13'0 0.0
2017-Sep-18 08:00N 28°29' W 016°13'0 0.0
2017-Sep-18 07:30N 28°29' W 016°13'0 0.0
2017-Sep-18 07:00N 28°29' W 016°13'0 0.0
2017-Sep-18 06:30N 28°29' W 016°13'0 0.0
2017-Sep-18 06:00N 28°29' W 016°13'0 0.0
2017-Sep-18 05:30N 28°29' W 016°13'0 0.0
2017-Sep-18 05:00N 28°29' W 016°13'0 0.1
2017-Sep-18 04:30N 28°29' W 016°13'1 2.5
2017-Sep-18 04:00N 28°28' W 016°12'714.4
2017-Sep-18 03:31N 28°31' W 016°05'814.7
2017-Sep-18 02:59N 28°36' W 015°58'714.7
2017-Sep-18 02:31N 28°41' W 015°53'814.7
2017-Sep-18 02:00N 28°47' W 015°47'714.9
2017-Sep-18 01:30N 28°52' W 015°41'715.0
2017-Sep-18 01:00N 28°57' W 015°34'714.8
2017-Sep-18 00:30N 29°02' W 015°28'815.0
2017-Sep-18 00:00N 29°08' W 015°22'714.9
2017-Sep-17 23:30N 29°13' W 015°17'714.8
2017-Sep-17 23:00N 29°18' W 015°11'714.8
2017-Sep-17 22:30N 29°24' W 015°05'715.0
2017-Sep-17 22:00N 29°30' W 014°60'1115.0
2017-Sep-17 21:18N 29°37' W 014°51'1215.1
2017-Sep-17 20:30N 29°46' W 014°42'  
Track history (hours):
 
Tides and Currents Weather Stations Pressure Air Temp Water Temp Dewpoint Dewpoint Depression Visibility Wind Speed Wind Dir Waves Ship Positions

OPDR Andalucia

Last reported at 2017-Sep-25 15:00 UTC. Time now 2017-Sep-25 15:16 UTC.
Position N 28°20' W 015°48'.

Length 145 m; draft 5 m.

Type: Ship (hazmat cat A). MMSI: 225302000.

Date/timePositionNaut miles runAvg speedWind from/ knotsBaromVisibWave heightAir tempDewpointWater temp
2017-Sep-25 15:00N 28°20' W 015°48'714.2
2017-Sep-25 14:30N 28°23' W 015°55'714.5
2017-Sep-25 14:00N 28°25' W 016°03'714.5
2017-Sep-25 13:30N 28°28' W 016°11'3 5.6
2017-Sep-25 13:00N 28°29' W 016°13'0 0.0
2017-Sep-25 12:30N 28°29' W 016°13'0 0.0
2017-Sep-25 12:00N 28°29' W 016°13'0 0.0
2017-Sep-25 11:30N 28°29' W 016°13'0 0.0
2017-Sep-25 11:00N 28°29' W 016°13'0 0.0
2017-Sep-25 10:30N 28°29' W 016°13'0 0.0
2017-Sep-25 10:00N 28°29' W 016°13'0 0.0
2017-Sep-25 09:30N 28°29' W 016°13'0 0.0
2017-Sep-25 09:00N 28°29' W 016°13'0 0.0
2017-Sep-25 08:30N 28°29' W 016°13'0 0.0
2017-Sep-25 08:00N 28°29' W 016°13'0 0.0
2017-Sep-25 07:30N 28°29' W 016°13'0 0.0
2017-Sep-25 07:00N 28°29' W 016°13'0 0.0
2017-Sep-25 06:30N 28°29' W 016°13'0 0.0
2017-Sep-25 06:00N 28°29' W 016°13'0 0.0
2017-Sep-25 05:31N 28°29' W 016°13'0 0.0
2017-Sep-25 05:00N 28°29' W 016°13'0 0.0
2017-Sep-25 04:30N 28°29' W 016°13'0 0.0
2017-Sep-25 04:00N 28°29' W 016°13'0 0.0
2017-Sep-25 03:30N 28°29' W 016°13'0 0.0
2017-Sep-25 03:00N 28°29' W 016°13'0 0.0
2017-Sep-25 02:31N 28°29' W 016°13'0 0.0
2017-Sep-25 02:00N 28°29' W 016°13'0 0.0
2017-Sep-25 01:30N 28°29' W 016°13'0 0.5
2017-Sep-25 01:00N 28°29' W 016°14'2 4.4
2017-Sep-25 00:30N 28°28' W 016°12'1 1.4
2017-Sep-25 00:00N 28°28' W 016°11'711.7
2017-Sep-24 23:26N 28°31' W 016°05'2214.8
2017-Sep-24 21:56N 28°47' W 015°47'614.7
2017-Sep-24 21:30N 28°52' W 015°42'714.6
2017-Sep-24 21:00N 28°57' W 015°36'1014.4
2017-Sep-24 20:19N 29°04' W 015°28'714.6
2017-Sep-24 19:49N 29°10' W 015°22'514.9
2017-Sep-24 19:30N 29°13' W 015°19'11414.8
2017-Sep-24 11:45N 30°35' W 013°47'1014.0
2017-Sep-24 11:02N 30°42' W 013°39'014.0
2017-Sep-24 11:00N 30°43' W 013°38'3014.3
2017-Sep-24 08:56N 31°04' W 013°14'814.5
2017-Sep-24 08:22N 31°10' W 013°07'814.6
2017-Sep-24 07:50N 31°15' W 013°01'514.8
2017-Sep-24 07:30N 31°18' W 012°57'815.2
2017-Sep-24 07:00N 31°24' W 012°51'815.8
2017-Sep-24 06:30N 31°29' W 012°44'1815.4
2017-Sep-24 05:21N 31°42' W 012°29'714.8
2017-Sep-24 04:51N 31°47' W 012°23'2615.0
2017-Sep-24 03:08N 32°06' W 012°02'315.2
2017-Sep-24 02:58N 32°07' W 011°60'  
2017-Sep-20 01:53N 31°06' W 011°36'613.9
2017-Sep-20 01:29N 31°02' W 011°39'2814.4
2017-Sep-19 23:34N 30°40' W 011°58'1114.0
2017-Sep-19 22:49N 30°31' W 012°06'713.8
2017-Sep-19 22:20N 30°26' W 012°11'413.8
2017-Sep-19 22:00N 30°23' W 012°14'1613.7
2017-Sep-19 20:50N 30°11' W 012°26'513.7
2017-Sep-19 20:30N 30°07' W 012°29'713.5
2017-Sep-19 20:00N 30°02' W 012°34'713.7
2017-Sep-19 19:30N 29°56' W 012°39'713.9
2017-Sep-19 19:00N 29°51' W 012°44'713.6
2017-Sep-19 18:30N 29°46' W 012°49'1314.5
2017-Sep-19 17:36N 29°35' W 012°58'115.0
2017-Sep-19 17:30N 29°34' W 012°59'714.9
2017-Sep-19 17:00N 29°28' W 013°04'815.1
2017-Sep-19 16:30N 29°22' W 013°09'714.7
2017-Sep-19 16:00N 29°16' W 013°14'814.7
2017-Sep-19 15:30N 29°10' W 013°19'815.2
2017-Sep-19 15:00N 29°04' W 013°24'714.8
2017-Sep-19 14:30N 28°58' W 013°30'2 4.0
2017-Sep-19 14:00N 28°58' W 013°32'0 0.0
2017-Sep-19 13:30N 28°58' W 013°32'0 0.0
2017-Sep-19 13:00N 28°58' W 013°32'0 0.0
2017-Sep-19 12:30N 28°58' W 013°32'0 0.0
2017-Sep-19 12:00N 28°58' W 013°32'0 0.0
2017-Sep-19 11:30N 28°58' W 013°32'0 0.0
2017-Sep-19 11:00N 28°58' W 013°32'0 0.0
2017-Sep-19 10:30N 28°58' W 013°32'0 0.0
2017-Sep-19 10:00N 28°58' W 013°32'0 0.0
2017-Sep-19 09:30N 28°58' W 013°32'0 0.0
2017-Sep-19 08:59N 28°58' W 013°32'0 0.6
2017-Sep-19 08:30N 28°58' W 013°32'4 7.7
2017-Sep-19 08:00N 28°55' W 013°35'815.8
2017-Sep-19 07:30N 28°51' W 013°43'815.6
2017-Sep-19 07:00N 28°48' W 013°51'815.5
2017-Sep-19 06:30N 28°47' W 013°60'815.4
2017-Sep-19 06:00N 28°44' W 014°08'815.4
2017-Sep-19 05:30N 28°40' W 014°16'815.2
2017-Sep-19 05:00N 28°36' W 014°23'714.9
2017-Sep-19 04:30N 28°33' W 014°31'714.8
2017-Sep-19 04:00N 28°29' W 014°38'714.9
2017-Sep-19 03:30N 28°26' W 014°46'815.2
2017-Sep-19 03:00N 28°23' W 014°53'815.1
2017-Sep-19 02:30N 28°19' W 015°01'815.1
2017-Sep-19 02:00N 28°15' W 015°08'815.5
2017-Sep-19 01:30N 28°11' W 015°16'714.9
2017-Sep-19 01:00N 28°08' W 015°23'2 3.7
2017-Sep-19 00:30N 28°09' W 015°25'0 0.0
2017-Sep-19 00:00N 28°09' W 015°25'0 0.0
2017-Sep-18 23:30N 28°09' W 015°25'0 0.0
2017-Sep-18 23:00N 28°09' W 015°25'0 0.0
2017-Sep-18 22:30N 28°09' W 015°25'0 0.0
2017-Sep-18 22:00N 28°09' W 015°25'0 0.0
2017-Sep-18 21:30N 28°09' W 015°25'0 0.0
2017-Sep-18 21:00N 28°09' W 015°25'0 0.0
2017-Sep-18 20:30N 28°09' W 015°25'0 0.0
2017-Sep-18 20:00N 28°09' W 015°25'0 0.0
2017-Sep-18 19:30N 28°09' W 015°25'0 0.0
2017-Sep-18 19:00N 28°09' W 015°25'0 0.0
2017-Sep-18 18:30N 28°09' W 015°25'0 0.0
2017-Sep-18 18:00N 28°09' W 015°25'0 0.0
2017-Sep-18 17:30N 28°09' W 015°25'0 0.0
2017-Sep-18 17:00N 28°09' W 015°25'2 3.0
2017-Sep-18 16:30N 28°07' W 015°24'5 9.3
2017-Sep-18 16:01N 28°12' W 015°23'714.6
2017-Sep-18 15:30N 28°11' W 015°31'4 7.9
2017-Sep-18 15:00N 28°11' W 015°36'714.8
2017-Sep-18 14:30N 28°14' W 015°43'714.7
2017-Sep-18 14:00N 28°18' W 015°51'814.6
2017-Sep-18 13:28N 28°21' W 015°59'714.5
2017-Sep-18 13:00N 28°25' W 016°05'714.8
2017-Sep-18 12:30N 28°28' W 016°13'2 3.2
2017-Sep-18 12:00N 28°29' W 016°13'0 0.0
2017-Sep-18 11:30N 28°29' W 016°13'0 0.0
2017-Sep-18 11:00N 28°29' W 016°13'0 0.0
2017-Sep-18 10:30N 28°29' W 016°13'0 0.0
2017-Sep-18 10:00N 28°29' W 016°13'0 0.0
2017-Sep-18 09:30N 28°29' W 016°13'0 0.0
2017-Sep-18 09:00N 28°29' W 016°13'0 0.0
2017-Sep-18 08:30N 28°29' W 016°13'0 0.0
2017-Sep-18 08:00N 28°29' W 016°13'0 0.0
2017-Sep-18 07:30N 28°29' W 016°13'0 0.0
2017-Sep-18 07:00N 28°29' W 016°13'0 0.0
2017-Sep-18 06:30N 28°29' W 016°13'0 0.0
2017-Sep-18 06:00N 28°29' W 016°13'0 0.0
2017-Sep-18 05:30N 28°29' W 016°13'0 0.0
2017-Sep-18 05:00N 28°29' W 016°13'0 0.1
2017-Sep-18 04:30N 28°29' W 016°13'1 2.5
2017-Sep-18 04:00N 28°28' W 016°12'714.4
2017-Sep-18 03:31N 28°31' W 016°05'814.7
2017-Sep-18 02:59N 28°36' W 015°58'714.7
2017-Sep-18 02:31N 28°41' W 015°53'814.7
2017-Sep-18 02:00N 28°47' W 015°47'714.9
2017-Sep-18 01:30N 28°52' W 015°41'715.0
2017-Sep-18 01:00N 28°57' W 015°34'714.8
2017-Sep-18 00:30N 29°02' W 015°28'815.0
2017-Sep-18 00:00N 29°08' W 015°22'714.9
2017-Sep-17 23:30N 29°13' W 015°17'714.8
2017-Sep-17 23:00N 29°18' W 015°11'714.8
2017-Sep-17 22:30N 29°24' W 015°05'715.0
2017-Sep-17 22:00N 29°30' W 014°60'1115.0
2017-Sep-17 21:18N 29°37' W 014°51'1215.1
2017-Sep-17 20:30N 29°46' W 014°42'  

Dump ship's entire track history